createdAt,value
2019-05-17T00:00:27.280Z,99994.98
2019-05-17T00:03:32.834Z,99993.02
2019-05-17T00:06:37.014Z,99998.59
2019-05-17T00:09:40.700Z,99996.30
2019-05-17T00:12:46.913Z,99994.19
2019-05-17T00:15:49.971Z,99993.73
2019-05-17T00:18:53.507Z,99998.70
2019-05-17T00:21:57.251Z,99994.26
2019-05-17T00:25:00.912Z,99988.77
2019-05-17T00:28:07.043Z,99993.81
2019-05-17T00:31:10.363Z,99982.45
2019-05-17T00:34:16.593Z,99989.71
2019-05-17T00:37:21.296Z,99976.61
2019-05-17T00:40:26.983Z,99981.31
2019-05-17T00:43:30.983Z,99966.25
2019-05-17T00:46:37.096Z,99967.03
2019-05-17T00:49:39.967Z,99966.05
2019-05-17T00:52:43.788Z,99962.03
2019-05-17T00:55:47.475Z,99962.03
2019-05-17T00:58:51.181Z,99958.75
2019-05-17T01:01:56.232Z,99958.83
2019-05-17T01:05:00.028Z,99961.88
2019-05-17T01:08:03.617Z,99958.27
2019-05-17T01:11:07.390Z,99951.27
2019-05-17T01:14:11.024Z,99950.36
2019-05-17T01:17:16.522Z,99946.81
2019-05-17T01:20:20.284Z,99948.05
2019-05-17T01:23:23.961Z,99945.70
2019-05-17T01:26:27.692Z,99941.80
2019-05-17T01:29:31.398Z,99937.77
2019-05-17T01:32:37.487Z,99936.73
2019-05-17T01:35:46.636Z,99933.89
2019-05-17T01:38:50.566Z,99935.52
2019-05-17T01:41:54.197Z,99932.51
2019-05-17T01:44:57.867Z,99934.58
2019-05-17T01:48:01.599Z,99932.88
2019-05-17T01:51:07.301Z,99923.98
2019-05-17T01:54:10.690Z,99927.88
2019-05-17T01:57:16.671Z,99920.20
2019-05-17T02:00:20.280Z,99915.26
2019-05-17T02:03:24.085Z,99909.16
2019-05-17T02:06:27.804Z,99911.88
2019-05-17T02:09:37.335Z,99910.48
2019-05-17T02:12:37.293Z,99911.00
2019-05-17T02:15:40.971Z,99905.77
2019-05-17T02:18:46.599Z,99907.52
2019-05-17T02:21:50.181Z,99897.25
2019-05-17T02:24:53.782Z,99900.94
2019-05-17T02:27:57.489Z,99896.80
2019-05-17T02:31:03.467Z,99897.44
2019-05-17T02:34:07.046Z,99888.20
2019-05-17T02:37:13.562Z,99884.62
2019-05-17T02:40:16.710Z,99884.52
2019-05-17T02:43:23.365Z,99883.22
2019-05-17T02:46:25.861Z,99874.89
2019-05-17T02:49:29.413Z,99879.19
2019-05-17T02:52:33.140Z,99876.67
2019-05-17T02:55:37.022Z,99872.03
2019-05-17T02:58:43.645Z,99863.56
2019-05-17T03:01:46.276Z,99862.20
2019-05-17T03:04:52.531Z,99867.19
2019-05-17T03:07:55.356Z,99861.77
2019-05-17T03:10:58.944Z,99865.64
2019-05-17T03:14:03.968Z,99863.77
2019-05-17T03:17:08.205Z,99869.45
2019-05-17T03:20:13.251Z,99871.45
2019-05-17T03:23:17.055Z,99878.76
2019-05-17T03:26:23.104Z,99876.58
2019-05-17T03:29:26.341Z,99874.17
2019-05-17T03:32:36.132Z,99870.63
2019-05-17T03:35:38.372Z,99874.61
2019-05-17T03:38:43.142Z,99875.20
2019-05-17T03:41:47.208Z,99879.02
2019-05-17T03:44:53.089Z,99877.47
2019-05-17T03:47:56.391Z,99877.08
2019-05-17T03:51:02.567Z,99876.06
2019-05-17T03:54:05.521Z,99876.89
2019-05-17T03:57:09.339Z,99879.86
2019-05-17T04:00:13.894Z,99878.25
2019-05-17T04:03:17.706Z,99875.31
2019-05-17T04:06:23.788Z,99874.73
2019-05-17T04:09:26.914Z,99873.52
2019-05-17T04:12:32.770Z,99872.40
2019-05-17T04:15:35.993Z,99869.59
2019-05-17T04:18:43.374Z,99872.55
2019-05-17T04:21:45.168Z,99872.06
2019-05-17T04:24:48.845Z,99880.55
2019-05-17T04:27:53.642Z,99879.04
2019-05-17T04:30:57.396Z,99872.25
2019-05-17T04:34:03.094Z,99868.18
2019-05-17T04:37:06.435Z,99869.39
2019-05-17T04:40:13.633Z,99869.10
2019-05-17T04:43:15.594Z,99876.36
2019-05-17T04:46:19.295Z,99871.06
2019-05-17T04:49:24.334Z,99874.75
2019-05-17T04:52:28.260Z,99876.54
2019-05-17T04:55:34.194Z,99877.00
2019-05-17T04:58:37.306Z,99878.16
2019-05-17T05:01:43.518Z,99875.35
2019-05-17T05:04:46.988Z,99876.28
2019-05-17T05:07:53.455Z,99875.16
2019-05-17T05:10:56.268Z,99873.00
2019-05-17T05:14:02.658Z,99872.03
2019-05-17T05:17:05.301Z,99873.27
2019-05-17T05:20:09.163Z,99874.35
2019-05-17T05:23:13.402Z,99873.05
2019-05-17T05:26:17.227Z,99870.73
2019-05-17T05:29:21.651Z,99861.84
2019-05-17T05:32:25.529Z,99864.52
2019-05-17T05:35:29.130Z,99864.31
2019-05-17T05:38:32.813Z,99860.80
2019-05-17T05:41:36.546Z,99859.52
2019-05-17T05:44:41.574Z,99856.72
2019-05-17T05:47:45.230Z,99853.45
2019-05-17T05:50:49.001Z,99852.70
2019-05-17T05:53:52.655Z,99848.56
2019-05-17T05:56:56.392Z,99852.95
2019-05-17T06:00:02.278Z,99855.93
2019-05-17T06:03:05.528Z,99848.12
2019-05-17T06:06:09.065Z,99848.86
2019-05-17T06:09:12.839Z,99849.06
2019-05-17T06:12:23.688Z,99844.99
2019-05-17T06:15:22.091Z,99847.75
2019-05-17T06:18:25.735Z,99846.89
2019-05-17T06:21:31.788Z,99849.41
2019-05-17T06:24:34.915Z,99845.12
2019-05-17T06:27:38.540Z,99834.15
2019-05-17T06:30:43.027Z,99838.23
2019-05-17T06:33:46.918Z,99836.84
2019-05-17T06:36:52.712Z,99846.69
2019-05-17T06:39:55.884Z,99837.42
2019-05-17T06:42:59.432Z,99846.81
2019-05-17T06:46:03.197Z,99839.48
2019-05-17T06:49:06.950Z,99837.27
2019-05-17T06:52:11.646Z,99838.92
2019-05-17T06:55:15.456Z,99843.73
2019-05-17T06:58:18.995Z,99843.52
2019-05-17T07:01:22.642Z,99840.32
2019-05-17T07:04:26.364Z,99840.57
2019-05-17T07:07:30.655Z,99840.34
2019-05-17T07:10:34.518Z,99838.53
2019-05-17T07:13:39.537Z,99835.00
2019-05-17T07:16:43.320Z,99834.42
2019-05-17T07:19:46.939Z,99835.38
2019-05-17T07:22:50.813Z,99836.84
2019-05-17T07:25:54.396Z,99840.19
2019-05-17T07:28:59.268Z,99837.31
2019-05-17T07:32:03.000Z,99827.03
2019-05-17T07:35:06.903Z,99834.78
2019-05-17T07:38:10.987Z,99827.65
2019-05-17T07:41:14.663Z,99822.80
2019-05-17T07:44:20.399Z,99821.47
2019-05-17T07:47:23.494Z,99830.43
2019-05-17T07:50:29.200Z,99836.98
2019-05-17T07:53:32.469Z,99835.61
2019-05-17T07:56:36.054Z,99821.98
2019-05-17T07:59:39.857Z,99818.46
2019-05-17T08:02:43.602Z,99818.37
2019-05-17T08:05:47.127Z,99817.13
2019-05-17T08:08:50.709Z,99823.83
2019-05-17T08:11:54.294Z,99833.98
2019-05-17T08:14:59.861Z,99826.97
2019-05-17T08:18:03.075Z,99818.70
2019-05-17T08:21:06.639Z,99817.55
2019-05-17T08:24:10.423Z,99819.85
2019-05-17T08:27:14.230Z,99816.15
2019-05-17T08:30:20.662Z,99808.55
2019-05-17T08:33:24.101Z,99809.70
2019-05-17T08:36:29.846Z,99812.92
2019-05-17T08:39:32.938Z,99820.94
2019-05-17T08:42:36.480Z,99813.72
2019-05-17T08:45:40.889Z,99802.95
2019-05-17T08:48:44.673Z,99802.75
2019-05-17T08:51:50.026Z,99800.52
2019-05-17T08:54:53.562Z,99786.59
2019-05-17T08:57:57.205Z,99777.42
2019-05-17T09:01:00.810Z,99766.63
2019-05-17T09:04:04.514Z,99774.91
2019-05-17T09:07:09.475Z,99773.33
2019-05-17T09:10:13.368Z,99774.79
2019-05-17T09:13:19.375Z,99770.72
2019-05-17T09:16:22.382Z,99758.84
2019-05-17T09:19:25.993Z,99759.09
2019-05-17T09:22:30.534Z,99758.49
2019-05-17T09:25:34.355Z,99754.34
2019-05-17T09:28:39.386Z,99749.01
2019-05-17T09:31:43.167Z,99746.53
2019-05-17T09:34:46.783Z,99742.64
2019-05-17T09:37:50.429Z,99735.63
2019-05-17T09:40:54.067Z,99733.81
2019-05-17T09:44:09.619Z,99727.37
2019-05-17T09:47:03.079Z,99737.70
2019-05-17T09:50:09.684Z,99732.08
2019-05-17T09:53:12.951Z,99723.81
2019-05-17T09:56:16.548Z,99729.86
2019-05-17T09:59:20.480Z,99726.73
2019-05-17T10:02:24.175Z,99722.89
2019-05-17T10:05:27.823Z,99721.20
2019-05-17T10:08:31.510Z,99716.61
2019-05-17T10:11:35.372Z,99709.88
2019-05-17T10:14:43.716Z,99709.56
2019-05-17T10:17:49.379Z,99716.02
2019-05-17T10:20:56.586Z,99708.25
2019-05-17T10:24:00.468Z,99701.66
2019-05-17T10:27:04.330Z,99704.16
2019-05-17T10:30:10.512Z,99698.44
2019-05-17T10:33:14.678Z,99705.27
2019-05-17T10:36:20.185Z,99691.52
2019-05-17T10:39:24.079Z,99692.58
2019-05-17T10:42:30.520Z,99689.84
2019-05-17T10:45:33.619Z,99687.02
2019-05-17T10:48:37.299Z,99687.81
2019-05-17T10:51:41.012Z,99684.85
2019-05-17T10:54:44.796Z,99685.86
2019-05-17T10:57:50.003Z,99688.19
2019-05-17T11:00:54.185Z,99674.73
2019-05-17T11:03:59.583Z,99668.05
2019-05-17T11:07:04.354Z,99661.74
2019-05-17T11:10:11.796Z,99664.25
2019-05-17T11:13:14.223Z,99668.28
2019-05-17T11:16:17.984Z,99666.86
2019-05-17T11:19:21.736Z,99665.39
2019-05-17T11:22:25.370Z,99665.39
2019-05-17T11:25:29.581Z,99646.91
2019-05-17T11:28:33.263Z,99649.10
2019-05-17T11:31:37.003Z,99645.23
2019-05-17T11:34:40.648Z,99653.70
2019-05-17T11:37:44.545Z,99658.32
2019-05-17T11:40:49.993Z,99653.02
2019-05-17T11:43:53.974Z,99656.69
2019-05-17T11:46:57.934Z,99655.41
2019-05-17T11:50:01.676Z,99652.50
2019-05-17T11:53:05.368Z,99659.72
2019-05-17T11:56:09.212Z,99651.15
2019-05-17T11:59:12.872Z,99646.48
2019-05-17T12:02:16.665Z,99639.54
2019-05-17T12:05:20.334Z,99638.41
2019-05-17T12:08:24.022Z,99637.61
2019-05-17T12:11:27.899Z,99639.17
2019-05-17T12:14:31.632Z,99626.45
2019-05-17T12:17:35.372Z,99612.81
2019-05-17T12:20:39.085Z,99615.86
2019-05-17T12:23:42.808Z,99628.37
2019-05-17T12:26:47.566Z,99622.71
2019-05-17T12:29:51.297Z,99622.84
2019-05-17T12:32:55.158Z,99633.55
2019-05-17T12:35:59.005Z,99622.53
2019-05-17T12:39:03.205Z,99609.03
2019-05-17T12:42:07.207Z,99612.30
2019-05-17T12:45:11.210Z,99619.94
2019-05-17T12:48:14.919Z,99617.98
2019-05-17T12:51:18.786Z,99608.45
2019-05-17T12:54:22.450Z,99613.68
2019-05-17T12:57:26.327Z,99610.00
2019-05-17T13:00:29.972Z,99612.96
2019-05-17T13:03:33.727Z,99618.16
2019-05-17T13:06:37.346Z,99611.58
2019-05-17T13:09:40.992Z,99604.06
2019-05-17T13:12:44.642Z,99608.09
2019-05-17T13:15:48.301Z,99604.55
2019-05-17T13:18:51.948Z,99595.44
2019-05-17T13:21:55.566Z,99597.41
2019-05-17T13:24:59.190Z,99597.50
2019-05-17T13:28:02.875Z,99581.80
2019-05-17T13:31:06.479Z,99569.97
2019-05-17T13:34:10.125Z,99570.52
2019-05-17T13:37:13.833Z,99570.14
2019-05-17T13:40:18.112Z,99571.80
2019-05-17T13:43:21.798Z,99562.45
2019-05-17T13:46:33.007Z,99573.08
2019-05-17T13:49:30.860Z,99580.92
2019-05-17T13:52:34.470Z,99576.71
2019-05-17T13:55:38.120Z,99572.80
2019-05-17T13:58:41.726Z,99562.50
2019-05-17T14:01:46.284Z,99565.94
2019-05-17T14:04:49.954Z,99560.25
2019-05-17T14:07:53.541Z,99550.89
2019-05-17T14:10:57.247Z,99546.45
2019-05-17T14:14:00.931Z,99547.00
2019-05-17T14:17:04.641Z,99551.96
2019-05-17T14:20:08.634Z,99555.88
2019-05-17T14:23:12.359Z,99562.23
2019-05-17T14:26:16.005Z,99557.48
2019-05-17T14:29:19.669Z,99554.17
2019-05-17T14:32:23.339Z,99551.39
2019-05-17T14:35:28.691Z,99554.23
2019-05-17T14:38:32.365Z,99550.95
2019-05-17T14:41:35.976Z,99545.28
2019-05-17T14:44:39.643Z,99538.69
2019-05-17T14:47:43.326Z,99538.95
2019-05-17T14:50:46.956Z,99543.90
2019-05-17T14:53:50.919Z,99543.65
2019-05-17T14:56:54.709Z,99540.25
2019-05-17T14:59:58.356Z,99534.84
2019-05-17T15:03:02.123Z,99535.56
2019-05-17T15:06:05.791Z,99528.14
2019-05-17T15:09:11.660Z,99519.93
2019-05-17T15:12:27.175Z,99535.87
2019-05-17T15:15:25.615Z,99528.84
2019-05-17T15:18:25.778Z,99532.17
2019-05-17T15:21:29.454Z,99523.47
2019-05-17T15:24:33.078Z,99518.28
2019-05-17T15:27:36.739Z,99515.81
2019-05-17T15:30:40.427Z,99524.94
2019-05-17T15:33:44.077Z,99515.28
2019-05-17T15:36:47.705Z,99518.56
2019-05-17T15:39:51.385Z,99509.95
2019-05-17T15:42:54.996Z,99514.26
2019-05-17T15:45:58.733Z,99510.70
2019-05-17T15:49:02.362Z,99504.70
2019-05-17T15:52:06.146Z,99507.48
2019-05-17T15:55:09.841Z,99500.05
2019-05-17T15:58:13.500Z,99509.66
2019-05-17T16:01:17.174Z,99503.22
2019-05-17T16:04:20.817Z,99494.22
2019-05-17T16:07:24.502Z,99498.67
2019-05-17T16:10:28.167Z,99490.64
2019-05-17T16:13:33.853Z,99494.50
2019-05-17T16:16:37.327Z,99489.47
2019-05-17T16:19:40.929Z,99496.34
2019-05-17T16:22:44.562Z,99488.88
2019-05-17T16:25:48.201Z,99489.73
2019-05-17T16:28:51.818Z,99491.31
2019-05-17T16:31:55.525Z,99489.33
2019-05-17T16:34:59.192Z,99483.33
2019-05-17T16:38:02.830Z,99485.02
2019-05-17T16:41:06.550Z,99476.48
2019-05-17T16:44:10.209Z,99483.92
2019-05-17T16:47:13.828Z,99478.14
2019-05-17T16:50:17.845Z,99476.16
2019-05-17T16:53:21.576Z,99478.13
2019-05-17T16:56:25.354Z,99471.77
2019-05-17T16:59:29.044Z,99473.94
2019-05-17T17:02:32.710Z,99470.38
2019-05-17T17:05:36.655Z,99470.56
2019-05-17T17:08:41.804Z,99467.67
2019-05-17T17:11:45.859Z,99464.88
2019-05-17T17:14:49.445Z,99460.43
2019-05-17T17:17:53.161Z,99468.30
2019-05-17T17:20:56.801Z,99460.58
2019-05-17T17:24:00.511Z,99468.28
2019-05-17T17:27:04.395Z,99459.73
2019-05-17T17:30:10.211Z,99461.37
2019-05-17T17:33:13.999Z,99462.13
2019-05-17T17:36:19.524Z,99463.50
2019-05-17T17:39:23.051Z,99464.88
2019-05-17T17:42:26.704Z,99464.61
2019-05-17T17:45:30.521Z,99466.25
2019-05-17T17:48:34.184Z,99459.30
2019-05-17T17:51:37.821Z,99462.31
2019-05-17T17:54:41.452Z,99451.84
2019-05-17T17:57:45.237Z,99457.56
2019-05-17T18:00:48.971Z,99452.36
2019-05-17T18:03:52.632Z,99446.86
2019-05-17T18:06:56.279Z,99452.84
2019-05-17T18:09:59.961Z,99452.55
2019-05-17T18:13:03.602Z,99451.99
2019-05-17T18:16:07.250Z,99453.89
2019-05-17T18:19:10.930Z,99460.68
2019-05-17T18:22:14.635Z,99460.87
2019-05-17T18:25:18.671Z,99462.41
2019-05-17T18:28:22.406Z,99461.30
2019-05-17T18:31:26.035Z,99465.89
2019-05-17T18:34:29.746Z,99466.66
2019-05-17T18:37:39.391Z,99464.20
2019-05-17T18:40:49.859Z,99465.41
2019-05-17T18:44:27.037Z,99463.89
2019-05-17T18:47:24.081Z,99458.80
2019-05-17T18:50:28.273Z,99459.86
2019-05-17T18:53:32.011Z,99462.96
2019-05-17T18:56:35.664Z,99469.14
2019-05-17T18:59:39.308Z,99469.83
2019-05-17T19:02:42.932Z,99470.38
2019-05-17T19:05:46.485Z,99474.40
2019-05-17T19:08:50.041Z,99482.30
2019-05-17T19:11:53.603Z,99478.69
2019-05-17T19:15:00.499Z,99483.68
2019-05-17T19:18:02.600Z,99481.50
2019-05-17T19:21:13.475Z,99482.50
2019-05-17T19:24:17.042Z,99484.78
2019-05-17T19:27:20.637Z,99485.96
2019-05-17T19:30:24.335Z,99490.27
2019-05-17T19:33:28.074Z,99495.67
2019-05-17T19:36:31.694Z,99497.20
2019-05-17T19:39:35.258Z,99491.59
2019-05-17T19:42:38.811Z,99492.95
2019-05-17T19:45:43.203Z,99500.72
2019-05-17T19:48:47.387Z,99502.60
2019-05-17T19:51:51.041Z,99498.03
2019-05-17T19:54:54.616Z,99500.38
2019-05-17T19:57:58.595Z,99500.34
2019-05-17T20:01:03.995Z,99498.73
2019-05-17T20:04:08.078Z,99499.79
2019-05-17T20:07:12.530Z,99499.24
2019-05-17T20:10:17.077Z,99497.50
2019-05-17T20:13:20.627Z,99504.92
2019-05-17T20:16:24.203Z,99497.48
2019-05-17T20:19:27.838Z,99497.52
2019-05-17T20:22:33.014Z,99493.66
2019-05-17T20:25:36.611Z,99494.27
2019-05-17T20:28:43.160Z,99499.70
2019-05-17T20:31:46.817Z,99496.53
2019-05-17T20:34:50.432Z,99502.20
2019-05-17T20:37:53.954Z,99503.44
2019-05-17T20:40:57.534Z,99499.12
2019-05-17T20:44:04.662Z,99504.95
2019-05-17T20:47:08.249Z,99500.98
2019-05-17T20:50:13.714Z,99497.47
2019-05-17T20:53:19.507Z,99498.37
2019-05-17T20:56:32.317Z,99500.25
2019-05-17T20:59:28.585Z,99493.53
2019-05-17T21:02:36.415Z,99496.74
2019-05-17T21:05:37.460Z,99487.36
2019-05-17T21:08:45.871Z,99489.48
2019-05-17T21:11:46.330Z,99486.98
2019-05-17T21:14:49.981Z,99485.57
2019-05-17T21:17:53.516Z,99486.16
2019-05-17T21:24:14.067Z,99483.80
2019-05-17T21:27:19.210Z,99486.87
2019-05-17T21:30:22.901Z,99490.06
2019-05-17T21:33:26.579Z,99487.52
2019-05-17T21:36:30.224Z,99486.48
2019-05-17T21:39:33.827Z,99490.73
2019-05-17T21:42:38.874Z,99500.70
2019-05-17T21:45:42.481Z,99491.95
2019-05-17T21:48:47.497Z,99487.86
2019-05-17T21:51:51.048Z,99488.50
2019-05-17T21:54:54.647Z,99486.68
2019-05-17T21:57:59.873Z,99489.47
2019-05-17T22:01:06.736Z,99480.02
2019-05-17T22:04:10.312Z,99481.23
2019-05-17T22:07:13.938Z,99483.14
2019-05-17T22:10:23.656Z,99480.78
2019-05-17T22:13:28.389Z,99486.56
2019-05-17T22:16:34.075Z,99484.19
2019-05-17T22:19:38.768Z,99490.97
2019-05-17T22:22:43.941Z,99487.70
2019-05-17T22:25:47.533Z,99483.16
2019-05-17T22:28:51.204Z,99478.55
2019-05-17T22:31:54.832Z,99487.80
2019-05-17T22:34:58.595Z,99485.69
2019-05-17T22:38:02.281Z,99478.73
2019-05-17T22:41:06.246Z,99481.73
2019-05-17T22:44:15.291Z,99479.00
2019-05-17T22:47:18.905Z,99481.90
2019-05-17T22:50:22.538Z,99476.27
2019-05-17T22:53:28.562Z,99472.20
2019-05-17T22:56:32.136Z,99472.35
2019-05-17T22:59:37.621Z,99469.03
2019-05-17T23:02:43.312Z,99467.34
2019-05-17T23:05:46.570Z,99467.57
2019-05-17T23:08:52.538Z,99478.25
2019-05-17T23:11:55.425Z,99473.24
2019-05-17T23:14:58.991Z,99471.59
2019-05-17T23:18:02.565Z,99471.43
2019-05-17T23:21:06.275Z,99463.95
2019-05-17T23:24:09.869Z,99468.95
2019-05-17T23:27:13.537Z,99464.80
2019-05-17T23:30:17.192Z,99459.52
2019-05-17T23:33:20.742Z,99467.70
2019-05-17T23:36:24.339Z,99460.64
2019-05-17T23:39:27.890Z,99469.41
2019-05-17T23:42:31.516Z,99467.60
2019-05-17T23:45:35.080Z,99466.15
2019-05-17T23:48:38.621Z,99460.64
2019-05-17T23:51:42.233Z,99458.48
2019-05-17T23:54:45.922Z,99462.89
2019-05-17T23:57:49.456Z,99465.02
